Airfield :
LOGIN :

Register | Disclaimer

   EN    FR    IT 

 










Legend :    VFR   Marginal VFR   IFR   Intensive IFR   Very Intensive IFR
Visi :
Ceiling :
>= 8 km
>= 3000ft
5 to 8 km
1000 to 3000 ft
1500m to 5 km
500 to 1000 ft
800 to 1500m
200 to 500 ft
< 800m
< 200 ft
Symbols :   Thunderstorms  Fog  Heavy snow  Heavy precipitations  Wind > 20 kt
SIGMETs :     Misc.  Thunderstorms  Icing  Turbulence  Mountain Waves  Volcanic Ashes







- Airport Elevation : 464 ft
- IATA code : EVX
- Download approach charts


LFOE - Evreux

CURRENT METAR :
  • 181200Z AUTO 25003KT 9999 SCT027 OVC034 07/06 Q1026

EXPIRED METARs :
  • 181130Z AUTO 21003KT 9999 BKN026 OVC033 06/06 Q1026
  • 181100Z AUTO 22005KT 9999 OVC030 06/06 Q1026
  • 181030Z AUTO 22005KT 9999 OVC030 06/06 Q1026
  • 181000Z AUTO 22005KT 8000 FEW002 OVC032 05/05 Q1026
  • 180930Z AUTO 25005KT 6000 BKN002 OVC034 05/05 Q1026

TAF TAF LFOE
Valid from the 18 at 09:00 until the 19 at 09:00 UTC


180800Z 1809/1909 26003KT 0300 FG VV///
BECMG 1809/1812 CAVOK
BECMG 1822/1824 BKN010
TEMPO 1900/1903 4000 -RA BKN006
BECMG 1905/1907 FEW020
No reported NOTAMs for that airfield.



MET'MAP, your aeronautical weather chart ! - Copyright ORBIFLY December 2007 - Disclaimer

ORBIFLY MET'MAP TEAM :

Programming & Development : Alexandra Zaïnal
Concept & Development : Baudouin d'Aumeries
Co-Development & Prog : Marc-Olivier Méhu
Technical & hardware support : Manuel Goepfert

Contact : metmap@orbifly.com




SOURCES & CREDITS :

   NOAA